sensor_id;sensor_type;location;lat;lon;timestamp;pressure;altitude;pressure_sealevel;temperature;humidity
66689;BME280;53587;59.318;18.084;2023-07-08T00:01:04;101866.59;;;20.93;70.27
66689;BME280;53587;59.318;18.084;2023-07-08T00:03:29;101869.88;;;20.95;70.15
66689;BME280;53587;59.318;18.084;2023-07-08T00:05:55;101873.22;;;20.97;70.14
66689;BME280;53587;59.318;18.084;2023-07-08T00:08:21;101871.25;;;21.03;70.02
66689;BME280;53587;59.318;18.084;2023-07-08T00:10:46;101861.56;;;21.05;69.90
66689;BME280;53587;59.318;18.084;2023-07-08T00:13:12;101864.84;;;21.07;70.04
66689;BME280;53587;59.318;18.084;2023-07-08T00:15:38;101866.25;;;21.10;69.90
66689;BME280;53587;59.318;18.084;2023-07-08T00:18:13;101864.41;;;20.85;68.21
66689;BME280;53587;59.318;18.084;2023-07-08T00:20:46;101868.97;;;19.98;68.53
66689;BME280;53587;59.318;18.084;2023-07-08T00:23:12;101868.88;;;19.36;69.40
66689;BME280;53587;59.318;18.084;2023-07-08T00:25:38;101880.63;;;18.95;70.21
66689;BME280;53587;59.318;18.084;2023-07-08T00:28:10;101886.44;;;18.99;73.71
66689;BME280;53587;59.318;18.084;2023-07-08T00:30:37;101883.78;;;19.30;77.32
66689;BME280;53587;59.318;18.084;2023-07-08T00:33:02;101888.81;;;19.59;76.74
66689;BME280;53587;59.318;18.084;2023-07-08T00:35:37;101885.53;;;19.83;75.50
66689;BME280;53587;59.318;18.084;2023-07-08T00:38:36;101880.03;;;20.03;74.90
66689;BME280;53587;59.318;18.084;2023-07-08T00:43:23;101884.44;;;20.35;73.68
66689;BME280;53587;59.318;18.084;2023-07-08T00:45:50;101887.19;;;20.46;73.03
66689;BME280;53587;59.318;18.084;2023-07-08T00:48:24;101880.53;;;20.52;72.79
66689;BME280;53587;59.318;18.084;2023-07-08T00:50:53;101879.97;;;20.60;72.43
66689;BME280;53587;59.318;18.084;2023-07-08T00:53:29;101875.78;;;20.68;71.93
66689;BME280;53587;59.318;18.084;2023-07-08T00:55:57;101880.78;;;20.71;71.93
66689;BME280;53587;59.318;18.084;2023-07-08T00:58:24;101876.63;;;20.73;71.85
66689;BME280;53587;59.318;18.084;2023-07-08T01:00:50;101879.94;;;20.81;71.88
66689;BME280;53587;59.318;18.084;2023-07-08T01:03:17;101882.13;;;20.84;71.89
66689;BME280;53587;59.318;18.084;2023-07-08T01:05:43;101873.78;;;20.89;71.38
66689;BME280;53587;59.318;18.084;2023-07-08T01:08:08;101879.88;;;20.91;71.37
66689;BME280;53587;59.318;18.084;2023-07-08T01:10:39;101873.81;;;20.94;71.12
66689;BME280;53587;59.318;18.084;2023-07-08T01:13:05;101870.16;;;20.99;70.97
66689;BME280;53587;59.318;18.084;2023-07-08T01:15:35;101871.53;;;21.01;71.14
66689;BME280;53587;59.318;18.084;2023-07-08T01:18:02;101867.66;;;21.02;71.08
66689;BME280;53587;59.318;18.084;2023-07-08T01:20:27;101870.69;;;21.06;70.78
66689;BME280;53587;59.318;18.084;2023-07-08T01:22:52;101873.16;;;21.07;70.81
66689;BME280;53587;59.318;18.084;2023-07-08T01:25:17;101870.38;;;21.13;70.64
66689;BME280;53587;59.318;18.084;2023-07-08T01:27:44;101863.53;;;20.95;69.20
66689;BME280;53587;59.318;18.084;2023-07-08T01:30:10;101868.69;;;20.05;69.27
66689;BME280;53587;59.318;18.084;2023-07-08T01:32:37;101871.09;;;19.44;69.87
66689;BME280;53587;59.318;18.084;2023-07-08T01:35:04;101873.19;;;19.01;70.48
66689;BME280;53587;59.318;18.084;2023-07-08T01:37:31;101873.72;;;18.98;73.74
66689;BME280;53587;59.318;18.084;2023-07-08T01:39:58;101863.31;;;19.26;77.33
66689;BME280;53587;59.318;18.084;2023-07-08T01:42:38;101867.28;;;19.56;78.10
66689;BME280;53587;59.318;18.084;2023-07-08T01:45:07;101873.09;;;19.80;76.68
66689;BME280;53587;59.318;18.084;2023-07-08T01:47:34;101875.06;;;20.00;76.00
66689;BME280;53587;59.318;18.084;2023-07-08T01:50:00;101880.59;;;20.16;75.21
66689;BME280;53587;59.318;18.084;2023-07-08T01:52:25;101878.34;;;20.28;74.07
66689;BME280;53587;59.318;18.084;2023-07-08T01:54:54;101886.38;;;20.40;74.26
66689;BME280;53587;59.318;18.084;2023-07-08T01:57:19;101883.88;;;20.49;73.98
66689;BME280;53587;59.318;18.084;2023-07-08T01:59:44;101875.53;;;20.54;73.16
66689;BME280;53587;59.318;18.084;2023-07-08T02:02:10;101879.41;;;20.63;72.95
66689;BME280;53587;59.318;18.084;2023-07-08T02:04:35;101879.66;;;20.67;73.04
66689;BME280;53587;59.318;18.084;2023-07-08T02:07:00;101884.38;;;20.71;72.67
66689;BME280;53587;59.318;18.084;2023-07-08T02:09:25;101883.25;;;20.78;72.58
66689;BME280;53587;59.318;18.084;2023-07-08T02:11:51;101882.41;;;20.82;72.66
66689;BME280;53587;59.318;18.084;2023-07-08T02:14:17;101891.56;;;20.88;72.20
66689;BME280;53587;59.318;18.084;2023-07-08T02:16:42;101884.63;;;20.90;72.11
66689;BME280;53587;59.318;18.084;2023-07-08T02:19:08;101891.53;;;20.93;71.89
66689;BME280;53587;59.318;18.084;2023-07-08T02:21:33;101897.03;;;20.98;71.30
66689;BME280;53587;59.318;18.084;2023-07-08T02:23:59;101888.44;;;21.00;71.94
66689;BME280;53587;59.318;18.084;2023-07-08T02:26:25;101889.81;;;21.02;71.58
66689;BME280;53587;59.318;18.084;2023-07-08T02:28:51;101896.72;;;21.05;71.62
66689;BME280;53587;59.318;18.084;2023-07-08T02:31:16;101897.84;;;21.09;71.55
66689;BME280;53587;59.318;18.084;2023-07-08T02:33:41;101898.66;;;21.10;71.37
66689;BME280;53587;59.318;18.084;2023-07-08T02:36:07;101900.88;;;21.13;71.42
66689;BME280;53587;59.318;18.084;2023-07-08T02:38:32;101899.88;;;20.78;69.44
66689;BME280;53587;59.318;18.084;2023-07-08T02:40:57;101895.25;;;20.01;69.19
66689;BME280;53587;59.318;18.084;2023-07-08T02:43:23;101903.44;;;19.44;70.54
66689;BME280;53587;59.318;18.084;2023-07-08T02:45:48;101909.66;;;19.03;70.15
66689;BME280;53587;59.318;18.084;2023-07-08T02:48:14;101927.34;;;19.07;74.98
66689;BME280;53587;59.318;18.084;2023-07-08T02:50:39;101915.31;;;19.34;77.96
66689;BME280;53587;59.318;18.084;2023-07-08T02:53:04;101913.13;;;19.57;77.78
66689;BME280;53587;59.318;18.084;2023-07-08T02:55:29;101919.84;;;19.82;77.87
66689;BME280;53587;59.318;18.084;2023-07-08T02:57:55;101907.44;;;20.00;76.50
66689;BME280;53587;59.318;18.084;2023-07-08T03:00:21;101906.59;;;20.15;75.52
66689;BME280;53587;59.318;18.084;2023-07-08T03:02:46;101923.50;;;20.29;75.23
66689;BME280;53587;59.318;18.084;2023-07-08T03:05:11;101927.63;;;20.41;74.76
66689;BME280;53587;59.318;18.084;2023-07-08T03:07:36;101928.72;;;20.51;74.40
66689;BME280;53587;59.318;18.084;2023-07-08T03:10:01;101920.94;;;20.58;74.31
66689;BME280;53587;59.318;18.084;2023-07-08T03:12:27;101922.88;;;20.63;73.31
66689;BME280;53587;59.318;18.084;2023-07-08T03:14:52;101919.84;;;20.69;73.75
66689;BME280;53587;59.318;18.084;2023-07-08T03:17:17;101924.81;;;20.72;73.41
66689;BME280;53587;59.318;18.084;2023-07-08T03:19:44;101916.50;;;20.78;72.99
66689;BME280;53587;59.318;18.084;2023-07-08T03:22:10;101935.06;;;20.82;73.10
66689;BME280;53587;59.318;18.084;2023-07-08T03:24:35;101923.13;;;20.87;72.95
66689;BME280;53587;59.318;18.084;2023-07-08T03:27:00;101910.94;;;20.88;72.98
66689;BME280;53587;59.318;18.084;2023-07-08T03:29:29;101921.44;;;20.96;72.56
66689;BME280;53587;59.318;18.084;2023-07-08T03:31:55;101914.22;;;20.95;72.48
66689;BME280;53587;59.318;18.084;2023-07-08T03:34:20;101927.22;;;21.00;72.63
66689;BME280;53587;59.318;18.084;2023-07-08T03:36:46;101920.28;;;21.02;72.26
66689;BME280;53587;59.318;18.084;2023-07-08T03:39:14;101925.56;;;21.04;72.26
66689;BME280;53587;59.318;18.084;2023-07-08T03:41:40;101927.47;;;21.08;71.88
66689;BME280;53587;59.318;18.084;2023-07-08T03:44:06;101922.50;;;21.11;71.93
66689;BME280;53587;59.318;18.084;2023-07-08T03:46:31;101927.75;;;21.12;71.66
66689;BME280;53587;59.318;18.084;2023-07-08T03:48:56;101926.41;;;20.99;70.83
66689;BME280;53587;59.318;18.084;2023-07-08T03:51:26;101921.53;;;20.14;69.93
66689;BME280;53587;59.318;18.084;2023-07-08T03:53:52;101925.88;;;19.58;70.99
66689;BME280;53587;59.318;18.084;2023-07-08T03:56:17;101937.59;;;19.12;70.60
66689;BME280;53587;59.318;18.084;2023-07-08T03:58:42;101926.75;;;19.00;73.97
66689;BME280;53587;59.318;18.084;2023-07-08T04:01:15;101928.00;;;19.30;78.31
66689;BME280;53587;59.318;18.084;2023-07-08T04:03:41;101928.09;;;19.56;79.09
66689;BME280;53587;59.318;18.084;2023-07-08T04:06:06;101931.16;;;19.80;77.65
66689;BME280;53587;59.318;18.084;2023-07-08T04:08:32;101942.56;;;19.99;76.59
66689;BME280;53587;59.318;18.084;2023-07-08T04:10:57;101936.78;;;20.16;76.23
66689;BME280;53587;59.318;18.084;2023-07-08T04:13:22;101939.25;;;20.28;75.49
66689;BME280;53587;59.318;18.084;2023-07-08T04:15:50;101943.41;;;20.41;75.29
66689;BME280;53587;59.318;18.084;2023-07-08T04:18:19;101949.75;;;20.52;74.92
66689;BME280;53587;59.318;18.084;2023-07-08T04:20:44;101950.59;;;20.57;74.61
66689;BME280;53587;59.318;18.084;2023-07-08T04:23:09;101945.88;;;20.63;73.67
66689;BME280;53587;59.318;18.084;2023-07-08T04:25:34;101949.44;;;20.69;73.67
66689;BME280;53587;59.318;18.084;2023-07-08T04:28:00;101953.63;;;20.77;73.57
66689;BME280;53587;59.318;18.084;2023-07-08T04:30:25;101952.50;;;20.78;73.27
66689;BME280;53587;59.318;18.084;2023-07-08T04:32:51;101956.09;;;20.83;72.91
66689;BME280;53587;59.318;18.084;2023-07-08T04:35:16;101946.41;;;20.86;72.56
66689;BME280;53587;59.318;18.084;2023-07-08T04:37:42;101956.91;;;20.89;72.42
66689;BME280;53587;59.318;18.084;2023-07-08T04:40:11;101954.16;;;20.94;72.33
66689;BME280;53587;59.318;18.084;2023-07-08T04:42:39;101957.44;;;20.96;72.14
66689;BME280;53587;59.318;18.084;2023-07-08T04:45:04;101958.81;;;20.99;71.95
66689;BME280;53587;59.318;18.084;2023-07-08T04:47:31;101957.44;;;21.01;71.76
66689;BME280;53587;59.318;18.084;2023-07-08T04:49:58;101957.69;;;21.05;71.72
66689;BME280;53587;59.318;18.084;2023-07-08T04:52:23;101957.44;;;21.06;71.29
66689;BME280;53587;59.318;18.084;2023-07-08T04:54:48;101950.75;;;21.07;71.12
66689;BME280;53587;59.318;18.084;2023-07-08T04:57:13;101942.19;;;21.09;70.92
66689;BME280;53587;59.318;18.084;2023-07-08T04:59:41;101950.19;;;21.11;71.01
66689;BME280;53587;59.318;18.084;2023-07-08T05:02:06;101946.63;;;21.10;70.18
66689;BME280;53587;59.318;18.084;2023-07-08T05:04:32;101947.84;;;20.26;69.23
66689;BME280;53587;59.318;18.084;2023-07-08T05:06:57;101939.69;;;19.63;70.27
66689;BME280;53587;59.318;18.084;2023-07-08T05:09:23;101950.03;;;19.14;70.25
66689;BME280;53587;59.318;18.084;2023-07-08T05:11:50;101948.78;;;18.90;73.39
66689;BME280;53587;59.318;18.084;2023-07-08T05:14:16;101950.63;;;19.22;77.42
66689;BME280;53587;59.318;18.084;2023-07-08T05:16:41;101947.41;;;19.51;77.82
66689;BME280;53587;59.318;18.084;2023-07-08T05:19:06;101951.63;;;19.79;76.68
66689;BME280;53587;59.318;18.084;2023-07-08T05:21:32;101948.94;;;20.00;75.00
66689;BME280;53587;59.318;18.084;2023-07-08T05:24:02;101950.34;;;20.18;74.56
66689;BME280;53587;59.318;18.084;2023-07-08T05:26:28;101945.06;;;20.32;73.81
66689;BME280;53587;59.318;18.084;2023-07-08T05:28:53;101962.50;;;20.42;73.43
66689;BME280;53587;59.318;18.084;2023-07-08T05:31:19;101956.41;;;20.51;73.19
66689;BME280;53587;59.318;18.084;2023-07-08T05:33:44;101947.53;;;20.59;72.52
66689;BME280;53587;59.318;18.084;2023-07-08T05:36:09;101956.38;;;20.66;72.17
66689;BME280;53587;59.318;18.084;2023-07-08T05:38:34;101958.06;;;20.72;71.87
66689;BME280;53587;59.318;18.084;2023-07-08T05:40:59;101951.41;;;20.79;71.32
66689;BME280;53587;59.318;18.084;2023-07-08T05:43:25;101956.09;;;20.83;70.86
66689;BME280;53587;59.318;18.084;2023-07-08T05:45:51;101957.19;;;20.87;70.71
66689;BME280;53587;59.318;18.084;2023-07-08T05:48:16;101950.81;;;20.92;70.60
66689;BME280;53587;59.318;18.084;2023-07-08T05:50:41;101957.44;;;20.96;70.34
66689;BME280;53587;59.318;18.084;2023-07-08T05:53:09;101950.78;;;20.97;70.37
66689;BME280;53587;59.318;18.084;2023-07-08T05:55:34;101956.06;;;20.99;69.45
66689;BME280;53587;59.318;18.084;2023-07-08T05:57:59;101960.19;;;21.01;69.71
66689;BME280;53587;59.318;18.084;2023-07-08T06:00:25;101965.19;;;21.04;69.68
66689;BME280;53587;59.318;18.084;2023-07-08T06:02:50;101963.50;;;21.08;69.51
66689;BME280;53587;59.318;18.084;2023-07-08T06:05:15;101959.72;;;20.68;67.96
66689;BME280;53587;59.318;18.084;2023-07-08T06:07:40;101964.72;;;19.99;68.67
66689;BME280;53587;59.318;18.084;2023-07-08T06:10:06;101961.78;;;19.53;69.28
66689;BME280;53587;59.318;18.084;2023-07-08T06:12:31;101962.75;;;19.15;70.68
66689;BME280;53587;59.318;18.084;2023-07-08T06:14:56;101969.69;;;19.23;74.55
66689;BME280;53587;59.318;18.084;2023-07-08T06:17:22;101965.66;;;19.52;75.62
66689;BME280;53587;59.318;18.084;2023-07-08T06:19:47;101961.28;;;19.76;74.17
66689;BME280;53587;59.318;18.084;2023-07-08T06:22:12;101970.25;;;19.99;73.33
66689;BME280;53587;59.318;18.084;2023-07-08T06:24:37;101969.13;;;20.16;72.99
66689;BME280;53587;59.318;18.084;2023-07-08T06:27:03;101971.94;;;20.31;71.87
66689;BME280;53587;59.318;18.084;2023-07-08T06:29:28;101982.16;;;20.41;71.35
66689;BME280;53587;59.318;18.084;2023-07-08T06:31:53;101975.81;;;20.51;71.39
66689;BME280;53587;59.318;18.084;2023-07-08T06:34:19;101969.97;;;20.57;71.42
66689;BME280;53587;59.318;18.084;2023-07-08T06:36:44;101976.06;;;20.65;70.75
66689;BME280;53587;59.318;18.084;2023-07-08T06:39:10;101973.28;;;20.70;70.73
66689;BME280;53587;59.318;18.084;2023-07-08T06:41:36;101968.59;;;20.75;70.33
66689;BME280;53587;59.318;18.084;2023-07-08T06:44:01;101976.34;;;20.79;69.64
66689;BME280;53587;59.318;18.084;2023-07-08T06:46:27;101971.88;;;20.83;70.39
66689;BME280;53587;59.318;18.084;2023-07-08T06:48:52;101980.47;;;20.86;69.87
66689;BME280;53587;59.318;18.084;2023-07-08T06:51:18;101978.81;;;20.90;69.70
66689;BME280;53587;59.318;18.084;2023-07-08T06:53:43;101976.31;;;20.94;69.50
66689;BME280;53587;59.318;18.084;2023-07-08T06:56:09;101970.19;;;20.97;69.33
66689;BME280;53587;59.318;18.084;2023-07-08T06:58:34;101979.59;;;21.01;69.51
66689;BME280;53587;59.318;18.084;2023-07-08T07:00:59;101971.84;;;21.03;69.24
66689;BME280;53587;59.318;18.084;2023-07-08T07:03:25;101975.97;;;21.06;69.33
66689;BME280;53587;59.318;18.084;2023-07-08T07:05:50;101974.13;;;20.50;67.89
66689;BME280;53587;59.318;18.084;2023-07-08T07:08:15;101979.63;;;19.88;69.54
66689;BME280;53587;59.318;18.084;2023-07-08T07:10:40;101981.66;;;19.44;70.48
66689;BME280;53587;59.318;18.084;2023-07-08T07:13:06;101988.09;;;19.02;70.42
66689;BME280;53587;59.318;18.084;2023-07-08T07:15:31;101987.94;;;19.24;75.33
66689;BME280;53587;59.318;18.084;2023-07-08T07:17:57;101983.63;;;19.54;75.22
66689;BME280;53587;59.318;18.084;2023-07-08T07:20:22;101994.53;;;19.82;73.62
66689;BME280;53587;59.318;18.084;2023-07-08T07:22:48;101985.47;;;20.02;73.45
66689;BME280;53587;59.318;18.084;2023-07-08T07:25:13;101993.22;;;20.20;72.14
66689;BME280;53587;59.318;18.084;2023-07-08T07:27:38;101992.69;;;20.34;71.71
66689;BME280;53587;59.318;18.084;2023-07-08T07:30:03;101990.72;;;20.44;71.85
66689;BME280;53587;59.318;18.084;2023-07-08T07:32:29;101984.34;;;20.54;71.12
66689;BME280;53587;59.318;18.084;2023-07-08T07:34:54;101985.19;;;20.60;70.91
66689;BME280;53587;59.318;18.084;2023-07-08T07:37:20;101989.63;;;20.66;70.58
66689;BME280;53587;59.318;18.084;2023-07-08T07:39:46;101997.09;;;20.71;69.96
66689;BME280;53587;59.318;18.084;2023-07-08T07:42:12;101991.28;;;20.78;69.61
66689;BME280;53587;59.318;18.084;2023-07-08T07:44:37;102005.13;;;20.83;69.58
66689;BME280;53587;59.318;18.084;2023-07-08T07:47:06;101999.84;;;20.86;69.24
66689;BME280;53587;59.318;18.084;2023-07-08T07:49:31;101996.84;;;20.88;69.38
66689;BME280;53587;59.318;18.084;2023-07-08T07:51:57;102002.34;;;20.93;68.90
66689;BME280;53587;59.318;18.084;2023-07-08T07:54:23;101999.28;;;20.95;68.97
66689;BME280;53587;59.318;18.084;2023-07-08T07:56:48;102002.88;;;20.95;68.68
66689;BME280;53587;59.318;18.084;2023-07-08T07:59:13;102005.66;;;21.00;68.26
66689;BME280;53587;59.318;18.084;2023-07-08T08:01:38;102005.38;;;21.02;68.41
66689;BME280;53587;59.318;18.084;2023-07-08T08:04:03;102006.75;;;21.04;68.32
66689;BME280;53587;59.318;18.084;2023-07-08T08:06:29;102012.28;;;21.10;67.99
66689;BME280;53587;59.318;18.084;2023-07-08T08:08:54;102003.47;;;20.66;67.31
66689;BME280;53587;59.318;18.084;2023-07-08T08:11:21;102001.22;;;20.01;68.31
66689;BME280;53587;59.318;18.084;2023-07-08T08:13:46;102002.97;;;19.49;69.72
66689;BME280;53587;59.318;18.084;2023-07-08T08:16:12;102008.63;;;19.17;69.89
66689;BME280;53587;59.318;18.084;2023-07-08T08:18:37;102006.47;;;19.24;73.22
66689;BME280;53587;59.318;18.084;2023-07-08T08:21:02;101998.84;;;19.57;73.15
66689;BME280;53587;59.318;18.084;2023-07-08T08:23:27;102000.63;;;19.84;72.22
66689;BME280;53587;59.318;18.084;2023-07-08T08:25:52;101995.16;;;20.04;71.86
66689;BME280;53587;59.318;18.084;2023-07-08T08:28:18;102001.25;;;20.22;71.10
66689;BME280;53587;59.318;18.084;2023-07-08T08:30:50;101996.84;;;20.36;70.11
66689;BME280;53587;59.318;18.084;2023-07-08T08:33:15;102015.09;;;20.48;70.27
66689;BME280;53587;59.318;18.084;2023-07-08T08:35:44;102006.25;;;20.56;69.64
66689;BME280;53587;59.318;18.084;2023-07-08T08:38:09;102005.13;;;20.62;69.45
66689;BME280;53587;59.318;18.084;2023-07-08T08:40:34;102009.56;;;20.68;68.69
66689;BME280;53587;59.318;18.084;2023-07-08T08:43:01;102013.16;;;20.74;68.96
66689;BME280;53587;59.318;18.084;2023-07-08T08:45:27;102015.13;;;20.79;68.77
66689;BME280;53587;59.318;18.084;2023-07-08T08:48:00;102012.34;;;20.84;68.44
66689;BME280;53587;59.318;18.084;2023-07-08T08:50:36;102014.28;;;20.88;68.25
66689;BME280;53587;59.318;18.084;2023-07-08T08:53:09;102020.09;;;20.92;68.03
66689;BME280;53587;59.318;18.084;2023-07-08T08:55:36;102011.19;;;20.95;67.87
66689;BME280;53587;59.318;18.084;2023-07-08T09:00:37;102016.75;;;21.00;67.79
66689;BME280;53587;59.318;18.084;2023-07-08T09:05:35;102022.28;;;21.05;67.17
66689;BME280;53587;59.318;18.084;2023-07-08T09:08:14;102011.72;;;21.07;67.55
66689;BME280;53587;59.318;18.084;2023-07-08T09:13:06;102024.94;;;19.82;68.92
66689;BME280;53587;59.318;18.084;2023-07-08T09:15:32;102015.91;;;19.33;69.91
66689;BME280;53587;59.318;18.084;2023-07-08T09:17:58;102021.03;;;19.09;71.72
66689;BME280;53587;59.318;18.084;2023-07-08T09:20:26;102022.03;;;19.45;74.23
66689;BME280;53587;59.318;18.084;2023-07-08T09:22:59;102024.38;;;19.74;72.52
66689;BME280;53587;59.318;18.084;2023-07-08T09:27:53;102024.78;;;20.19;70.81
66689;BME280;53587;59.318;18.084;2023-07-08T09:30:19;102021.19;;;20.34;70.50
66689;BME280;53587;59.318;18.084;2023-07-08T09:32:48;102026.19;;;20.48;70.34
66689;BME280;53587;59.318;18.084;2023-07-08T09:35:55;102033.94;;;20.56;69.65
66689;BME280;53587;59.318;18.084;2023-07-08T09:38:06;102024.81;;;20.66;69.12
66689;BME280;53587;59.318;18.084;2023-07-08T09:40:31;102035.88;;;20.71;69.00
66689;BME280;53587;59.318;18.084;2023-07-08T09:43:42;102022.88;;;20.77;68.77
66689;BME280;53587;59.318;18.084;2023-07-08T09:45:44;102028.94;;;20.84;68.18
66689;BME280;53587;59.318;18.084;2023-07-08T09:48:14;102033.94;;;20.87;68.33
66689;BME280;53587;59.318;18.084;2023-07-08T09:50:42;102029.50;;;20.91;68.24
66689;BME280;53587;59.318;18.084;2023-07-08T09:53:10;102029.78;;;20.95;67.88
66689;BME280;53587;59.318;18.084;2023-07-08T09:55:37;102031.72;;;20.99;68.09
66689;BME280;53587;59.318;18.084;2023-07-08T09:58:03;102023.94;;;21.01;67.66
66689;BME280;53587;59.318;18.084;2023-07-08T10:00:29;102024.19;;;21.05;67.63
66689;BME280;53587;59.318;18.084;2023-07-08T10:03:00;102028.34;;;21.07;67.60
66689;BME280;53587;59.318;18.084;2023-07-08T10:07:56;102028.94;;;20.42;66.56
66689;BME280;53587;59.318;18.084;2023-07-08T10:10:24;102023.34;;;19.91;67.73
66689;BME280;53587;59.318;18.084;2023-07-08T10:13:04;102028.66;;;19.44;68.53
66689;BME280;53587;59.318;18.084;2023-07-08T10:16:27;102039.41;;;19.36;71.63
66689;BME280;53587;59.318;18.084;2023-07-08T10:18:25;102034.28;;;19.70;72.77
66689;BME280;53587;59.318;18.084;2023-07-08T10:23:38;102035.03;;;20.19;70.85
66689;BME280;53587;59.318;18.084;2023-07-08T10:26:29;102022.03;;;20.35;70.00
66689;BME280;53587;59.318;18.084;2023-07-08T10:29:13;102029.50;;;20.50;69.81
66689;BME280;53587;59.318;18.084;2023-07-08T10:36:52;102045.03;;;20.77;68.34
66689;BME280;53587;59.318;18.084;2023-07-08T10:44:21;102031.16;;;20.92;67.62
66689;BME280;53587;59.318;18.084;2023-07-08T10:54:48;102038.91;;;20.95;67.32
66689;BME280;53587;59.318;18.084;2023-07-08T11:07:49;102039.84;;;19.75;71.95
66689;BME280;53587;59.318;18.084;2023-07-08T11:12:53;102043.88;;;20.21;70.36
66689;BME280;53587;59.318;18.084;2023-07-08T11:15:31;102040.84;;;20.38;69.72
66689;BME280;53587;59.318;18.084;2023-07-08T11:18:00;102047.50;;;20.52;69.17
66689;BME280;53587;59.318;18.084;2023-07-08T11:20:34;102036.72;;;20.61;69.00
66689;BME280;53587;59.318;18.084;2023-07-08T11:23:03;102041.13;;;20.67;68.67
66689;BME280;53587;59.318;18.084;2023-07-08T11:25:29;102038.38;;;20.78;67.67
66689;BME280;53587;59.318;18.084;2023-07-08T11:27:57;102043.91;;;20.83;67.71
66689;BME280;53587;59.318;18.084;2023-07-08T11:30:26;102045.84;;;20.87;67.56
66689;BME280;53587;59.318;18.084;2023-07-08T11:32:58;102038.38;;;20.93;67.22
66689;BME280;53587;59.318;18.084;2023-07-08T11:35:32;102035.88;;;20.97;66.85
66689;BME280;53587;59.318;18.084;2023-07-08T11:37:58;102038.06;;;21.00;66.72
66689;BME280;53587;59.318;18.084;2023-07-08T11:40:24;102036.44;;;21.04;66.50
66689;BME280;53587;59.318;18.084;2023-07-08T11:42:49;102042.81;;;20.94;66.16
66689;BME280;53587;59.318;18.084;2023-07-08T11:47:47;102040.78;;;19.97;65.95
66689;BME280;53587;59.318;18.084;2023-07-08T11:50:21;102032.00;;;19.52;66.63
66689;BME280;53587;59.318;18.084;2023-07-08T11:52:54;102040.00;;;19.48;70.59
66689;BME280;53587;59.318;18.084;2023-07-08T11:55:21;102038.75;;;19.76;71.00
66689;BME280;53587;59.318;18.084;2023-07-08T11:57:50;102036.66;;;19.99;70.59
66689;BME280;53587;59.318;18.084;2023-07-08T12:00:18;102038.31;;;20.21;70.22
66689;BME280;53587;59.318;18.084;2023-07-08T12:02:56;102030.59;;;20.38;69.73
66689;BME280;53587;59.318;18.084;2023-07-08T12:05:32;102039.47;;;20.51;68.98
66689;BME280;53587;59.318;18.084;2023-07-08T12:07:58;102033.66;;;20.63;68.75
66689;BME280;53587;59.318;18.084;2023-07-08T12:12:51;102028.41;;;20.77;67.88
66689;BME280;53587;59.318;18.084;2023-07-08T12:15:27;102028.94;;;20.84;67.64
66689;BME280;53587;59.318;18.084;2023-07-08T12:17:58;102029.22;;;20.87;67.43
66689;BME280;53587;59.318;18.084;2023-07-08T12:20:30;102021.19;;;20.91;67.23
66689;BME280;53587;59.318;18.084;2023-07-08T12:22:56;102030.34;;;20.97;67.09
66689;BME280;53587;59.318;18.084;2023-07-08T12:25:22;102020.63;;;20.99;67.19
66689;BME280;53587;59.318;18.084;2023-07-08T12:27:48;102016.19;;;21.03;66.62
66689;BME280;53587;59.318;18.084;2023-07-08T12:30:14;102019.53;;;20.85;66.84
66689;BME280;53587;59.318;18.084;2023-07-08T12:32:39;102012.88;;;20.39;66.16
66689;BME280;53587;59.318;18.084;2023-07-08T12:35:08;102021.13;;;19.93;66.48
66689;BME280;53587;59.318;18.084;2023-07-08T12:37:41;102023.19;;;19.55;67.33
66689;BME280;53587;59.318;18.084;2023-07-08T12:40:08;102017.09;;;19.58;70.12
66689;BME280;53587;59.318;18.084;2023-07-08T12:42:34;102027.19;;;19.85;71.00
66689;BME280;53587;59.318;18.084;2023-07-08T12:45:00;102014.22;;;20.06;70.80
66689;BME280;53587;59.318;18.084;2023-07-08T12:47:25;102024.78;;;20.24;69.85
66689;BME280;53587;59.318;18.084;2023-07-08T12:49:50;102014.53;;;20.40;69.71
66689;BME280;53587;59.318;18.084;2023-07-08T12:52:21;102012.31;;;20.53;69.11
66689;BME280;53587;59.318;18.084;2023-07-08T12:54:47;102013.16;;;20.64;68.87
66689;BME280;53587;59.318;18.084;2023-07-08T12:57:13;102016.22;;;20.72;68.40
66689;BME280;53587;59.318;18.084;2023-07-08T12:59:39;102023.13;;;20.80;68.61
66689;BME280;53587;59.318;18.084;2023-07-08T13:02:08;102015.66;;;20.86;67.99
66689;BME280;53587;59.318;18.084;2023-07-08T13:04:40;102015.66;;;20.91;67.62
66689;BME280;53587;59.318;18.084;2023-07-08T13:07:06;102008.44;;;20.95;67.48
66689;BME280;53587;59.318;18.084;2023-07-08T13:09:37;102010.38;;;21.00;67.36
66689;BME280;53587;59.318;18.084;2023-07-08T13:12:05;102006.75;;;21.04;67.21
66689;BME280;53587;59.318;18.084;2023-07-08T13:14:36;102001.78;;;21.06;66.91
66689;BME280;53587;59.318;18.084;2023-07-08T13:17:01;102000.69;;;20.77;66.52
66689;BME280;53587;59.318;18.084;2023-07-08T13:19:26;101998.47;;;20.32;66.52
66689;BME280;53587;59.318;18.084;2023-07-08T13:21:52;101997.34;;;19.92;66.99
66689;BME280;53587;59.318;18.084;2023-07-08T13:24:17;102004.63;;;19.50;67.18
66689;BME280;53587;59.318;18.084;2023-07-08T13:26:44;102002.19;;;19.64;71.86
66689;BME280;53587;59.318;18.084;2023-07-08T13:29:11;102003.16;;;19.90;71.77
66689;BME280;53587;59.318;18.084;2023-07-08T13:31:38;102004.53;;;20.14;70.44
66689;BME280;53587;59.318;18.084;2023-07-08T13:34:09;102001.25;;;20.32;70.30